Terminal Aerodrome Forecast
Issued by NWS Springfield, MO

Home | Current Version | Previous Version | Text Only | Print | Product List | Glossary On
Versions: 1 2 3 4 5 6 7 8 9 10 11 12 13 14 15 16 17 18 19 20 21 22 23
755
FTUS43 KSGF 051401 AAA
TAFSGF
TAF AMD
KSGF 051401Z 0514/0612 14006KT 1/4SM FZFG VV002
     FM051500 15008KT 3SM BR BKN007
     FM051600 15011KT P6SM BKN200
     FM060400 15005KT 4SM -RA BR OVC020
     FM060900 VRB04KT 5SM BR OVC015=

USA.gov is the U.S. government's official web portal to all federal, state and local government web resources and services.